Kansas City, MO (64101)

6:57 PM CDT on August 28, 2015 (GMT -0500)
Midtown Hospital Hill | | Change Station
CLOSE
Current Station
Personal Weather Station
Location: Kansas City, MO
Elevation: 984 ft
Nearby Weather Stations

Elev 984 ft 39.08 °N, 94.58 °W | Updated 13 minutes ago

Overcast
Overcast
75.6 °F
Feels Like 77 °F
N
5.8
Wind Variable Wind from East

Today
High -- | Low -- °F
--% Chance of Precip.
Yesterday
High -- | Low -- °F
Precip. -- in
6:43 AM 7:55 PM
Waxing Gibbous, 99% visible
Pressure 29.88 in
Visibility 10.0 miles
Clouds Overcast 7500 ft
Heat Index 77 °F
Dew Point 65 °F
Humidity 69%
Rainfall 0.00 in
Snow Depth Not available.
UV 0 out of 12
Pollen 4.70 out of 12
Air Quality Not available.
Flu Activity Not available.
METAR KMKC 282354Z 19012KT 10SM OVC075 24/19 A2990 RMK AO2 SLP118 T02440189 10283 20244 50004
Pressure 29.88 in
Visibility 10.0 miles
Clouds Overcast 7500 ft
Heat Index 77 °F
Dew Point 65 °F
Humidity 69%
Rainfall 0.00 in
Snow Depth Not available.
UV 0 out of 12
Pollen 4.70 out of 12
Air Quality Not available.
Flu Activity Not available.
METAR KMKC 282354Z 19012KT 10SM OVC075 24/19 A2990 RMK AO2 SLP118 T02440189 10283 20244 50004

10-Day Weather Forecast

×

Almanac

Astronomy

Aug. 28, 2015 Rise Set
Actual Time
Civil Twilight
Nautical Twilight
Astronomical Twilight
Moon
Length of Visible Light
Length of Day
Tomorrow will be .
, % of the Moon is Illuminated

Today's Extremes

State Highs State Lows

Community

WunderPhotos

Upload Photos

1,850,532 photos uploaded!

WunderBlogs® & News

Nearby

Air Quality

  Air Quality AQ Index Pollutant
Not available.

Snow Depth

Station Depth Elevation

Earthquake Activity

City Distance Mag. Time & Date
Minimum magnitude displayed is 2.5.

Coastal Water Temperatures

Place Temperature

Stations

Nearby Weather Stations

Station Location Temp. Windchill Dew Point Humidity Wind Precip. Elev Updated Type